OKBK/KWI METAR and TAF weather

Enter ICAO airport designator
Station Type Date Time Source
OKBK METAR 2019/10/23 02:00 UTC NOAA

OKBK 230200Z 21004KT CAVOK 23/16 Q1008 NOSIG


Station Type Date Time Source
OKBK Decoded METAR 2019/10/23 02:00 UTC NOAA

Kuwait Internationalairport, Kuwait (OKBK) 29-13N 047-59E 55M
Oct 22, 2019 - 10:00 PM EDT / 2019.10.23 0200 UTC
Wind: from the SSW (210 degrees) at 5 MPH (4 KT):0
Visibility: greater than 7 mile(s):0
Temperature: 73 F (23 C)
Dew Point: 60 F (16 C)
Relative Humidity: 64%
Pressure (altimeter): 29.77 in. Hg (1008 hPa)
ob: OKBK 230200Z 21004KT CAVOK 23/16 Q1008 NOSIG
cycle: 2

Station Type Date Time Source
OKBK TAF 2019/10/22 18:45 UTC NOAA

TAF TAF OKBK 221645Z 2218/2324 12010KT 7000 FEW040 SCT100
TEMPO 2218/2303 VRB03KT 3000 BR/HZ

Example: see airport list